Cooks, MI (49817)

11:05 AM EST del 24 novembre 2014 (GMT -0500)
Garden Corners, Michigan | Change Station
CLOSE
Current Station
Stazione meteo personale
Location: Garden Corners, MI
Altitudine: 587 ft
Stazioni meteo nelle vicinanze
Avvisi attivi: Lake Effect Snow Advisory

Alt. 587 ft 45.90 °N, 86.55 °W | Updated 3 seconds ago

Coperto
Coperto
41.3 °F
Sembra 41 °F
N
1.0
Vento Variabile Vento da Ovest
Gusts 10.0 mph

Oggi
Massima -- | Minima -- °F
--% Possibilità di precip.
Ieri
Massima -- | Minima -- °F
Precip. -- in
7:58 AM 5:06 PM
Luna crescente, 6% visible
Pressione 28.98 in
Visibilità 10.0 miglia
Nuvole Coperto 500 ft
Raffreddamento del vento 41 °F
Punto di rugiada 41 °F
Umidità 100%
Piovosità 0.45 in
Spessore del manto nevoso Non disponibile.
Raggi UV 0 fuori da 12
Polline .10 fuori da 12
Qualità dell'aria Non disponibile.
Flu Activity Non disponibile.
METAR KISQ 241554Z AUTO 31008KT 10SM -RA OVC005 05/05 A2898 RMK AO2 T00500050

More Conditions Fewer Conditions

Pressione 28.98 in
Visibilità 10.0 miglia
Nuvole Coperto 500 ft
Raffreddamento del vento 41 °F
Punto di rugiada 41 °F
Umidità 100%
Piovosità 0.45 in
Spessore del manto nevoso Non disponibile.
Raggi UV 0 fuori da 12
Polline .10 fuori da 12
Qualità dell'aria Non disponibile.
Flu Activity Non disponibile.
METAR KISQ 241554Z AUTO 31008KT 10SM -RA OVC005 05/05 A2898 RMK AO2 T00500050

More Conditions Fewer Conditions

10-Day Weather Forecast

Almanac

Astronomia

Nov. 24, 2014 Alba Tramonto
Ora attuale
Crepuscolo civile
Crepuscolo nautico
Crepuscolo astronomico
Luna
Estensione della luce visibile
Lunghezza del giorno
Tomorrow will be .
, % of the Moon is Illuminated

Gli estremi di oggi

State Highs State Lows

Community

WunderPhotos

Upload Photos

1,773,364 foto caricate!

WunderBlogs® & News

Nearby

Qualità dell'aria

  Qualità dell'aria Indice AQ Inquinante
Not available.

Profondità neve

Stazione Profondità Altitudine

Attività sismica

Città  Distanza Mag. Data & Ora
Minimo Magnitudo Mostrato è 2.5.

Temperature delle acque costiere

Località Temperatura

Stazioni meteo nelle vicinanze